Colorado Springs, CO (80929)

2:13 PM MDT on September 19, 2014 (GMT -0600)
Industrial Parkway | Change Station
CLOSE
Current Station
Personal Weather Station
Location: Colorado Springs, CO
Elevation: 6532 ft
Nearby Weather Stations

Elev 6532 ft 38.88 °N, 104.67 °W | Updated 14 minutes ago

Clear
Clear
82.9 °F
Feels Like 81 °F
N
13.0
Wind Variable Wind from ENE

Today
High -- | Low -- °F
--% Chance of Precip.
Yesterday
High -- | Low -- °F
Precip. -- in
6:43 AM 7:00 PM
Waning Crescent, 17% visible
Pressure 29.78 in
Visibility 10.0 miles
Clouds Few 11000 ft
Few 20000 ft
Heat Index 81 °F
Dew Point 41 °F
Humidity 23%
Rainfall 0.00 in
Snow Depth 6 in , 0 in , 87 in
UV 8 out of 12
Pollen 5.70 out of 12
Ozone Good
PM2.5 Good
Flu Activity Not available.
METAR KCOS 191954Z 04012G25KT 10SM FEW110 FEW200 30/02 A3006 RMK AO2 PK WND 04027/1909 SLP084 T03000022

More Conditions Fewer Conditions

Pressure 29.78 in
Visibility 10.0 miles
Clouds Few 11000 ft
Few 20000 ft
Heat Index 81 °F
Dew Point 41 °F
Humidity 23%
Rainfall 0.00 in
Snow Depth 6 in , 0 in , 87 in
UV 8 out of 12
Pollen 5.70 out of 12
Ozone Good
PM2.5 Good
Flu Activity Not available.
METAR KCOS 191954Z 04012G25KT 10SM FEW110 FEW200 30/02 A3006 RMK AO2 PK WND 04027/1909 SLP084 T03000022

More Conditions Fewer Conditions

10-Day Weather Forecast

Almanac

Astronomy

Sep. 19, 2014 Rise Set
Actual Time 6:43 AM MDT 7:00 PM MDT
Civil Twilight 6:16 AM MDT 7:26 PM MDT
Nautical Twilight 5:45 AM MDT 7:57 PM MDT
Astronomical Twilight 5:13 AM MDT 8:29 PM MDT
Moon 2:32 AM MDT 4:28 PM MDT
Length of Visible Light 13h 09m
Length of Day
12h 16m
Tomorrow will be 2m 29s shorter.
Waning Crescent, 17% of the Moon is Illuminated
Today
Waning Crescent
Sep 24
New
Oct 1
First Quarter
Oct 8
Full
Oct 15
Last Quarter

Today's Extremes

State Highs State Lows

Community

WunderPhotos

Upload Photos

1,754,692 photos uploaded!

WunderBlogs® & News

By Dr. Jeff Masters
Director of Meteorology, Weather Underground
By Kari Strenfel
Meteorologist, Weather Underground
By Christopher C. Burt
Weather Historian, Weather Underground
September 19, 2014
September 19, 2014
September 19, 2014

Nearby

Air Quality

  Air Quality AQ Index Pollutant
Yesterday Good
OZONE
Yesterday Good
PM2.5
Current Good
OZONE
Current Good
PM2.5
Friday Good
PM2.5
Friday Good
OZONE
Saturday Good
PM2.5
Saturday Good
OZONE
Sunday Good
PM2.5
Sunday Good
OZONE
Monday Good
PM2.5
Monday Good
OZONE

Snow Depth

Station Depth Elevation
Lone Cone 6 in 9600 ft
Vallecito 0 in 10880 ft
Vail Mountain 87 in 10300 ft
Rough And Tumble 1 in 10360 ft
North Lost Trail 0 in 9200 ft

Earthquake Activity

City Distance Mag. Time & Date
No recent earthquake activity has been reported nearby.
Minimum magnitude displayed is 2.5.

Coastal Water Temperatures

Place Temperature
No Stations Reporting

Nearby Weather Stations